createdAt,value
2019-03-19T08:48:03.622Z,51.35
2019-03-19T08:50:35.790Z,53.78
2019-03-19T08:53:09.004Z,52.45
2019-03-19T08:55:41.741Z,50.17
2019-03-19T08:58:15.678Z,54.43
2019-03-19T09:01:21.136Z,54.40
2019-03-19T09:03:53.652Z,57.30
2019-03-19T09:06:26.221Z,59.10
2019-03-19T09:08:58.474Z,48.73
2019-03-19T09:11:31.868Z,49.42
2019-03-19T09:14:04.642Z,49.03
2019-03-19T09:16:40.705Z,50.00
2019-03-19T09:19:13.052Z,48.87
2019-03-19T09:21:45.354Z,50.03
2019-03-19T09:24:17.557Z,48.25
2019-03-19T09:26:49.828Z,49.13
2019-03-19T09:29:22.009Z,51.60
2019-03-19T09:31:54.051Z,50.63
2019-03-19T09:34:27.638Z,49.27
2019-03-19T09:36:59.855Z,52.38
2019-03-19T09:39:32.089Z,50.60
2019-03-19T09:42:04.566Z,51.68
2019-03-19T09:44:36.887Z,47.45
2019-03-19T09:47:09.131Z,48.85
2019-03-19T09:49:41.515Z,48.13
2019-03-19T09:52:13.866Z,47.55
2019-03-19T09:54:46.098Z,48.80
2019-03-19T09:57:18.553Z,87.02
2019-03-19T09:59:51.847Z,55.00
2019-03-19T10:02:24.063Z,49.00
2019-03-19T10:04:56.630Z,48.33
2019-03-19T10:07:28.791Z,48.25
2019-03-19T10:10:01.011Z,48.05
2019-03-19T10:12:33.567Z,46.93
2019-03-19T10:15:07.020Z,47.55
2019-03-19T10:17:39.274Z,48.78
2019-03-19T10:20:13.823Z,50.10
2019-03-19T10:22:46.465Z,48.80
2019-03-19T10:25:19.240Z,47.62
2019-03-19T10:27:51.615Z,49.13
2019-03-19T10:30:25.523Z,58.70
2019-03-19T10:32:58.287Z,57.27
2019-03-19T10:35:30.507Z,51.75
2019-03-19T10:38:02.746Z,50.47
2019-03-19T10:40:34.892Z,49.23
2019-03-19T10:43:07.615Z,47.60
2019-03-19T10:45:39.944Z,46.13
2019-03-19T10:48:12.153Z,47.83
2019-03-19T10:50:44.435Z,47.08
2019-03-19T10:53:16.619Z,47.90
2019-03-19T10:55:49.102Z,47.50
2019-03-19T10:58:21.209Z,46.95
2019-03-19T11:00:55.337Z,47.70
2019-03-19T11:03:27.567Z,48.92
2019-03-19T11:05:59.723Z,47.78
2019-03-19T11:08:32.061Z,48.28
2019-03-19T11:11:04.103Z,49.88
2019-03-19T11:13:36.504Z,48.33
2019-03-19T11:16:08.590Z,49.48
2019-03-19T11:18:40.826Z,49.57
2019-03-19T11:21:12.984Z,49.77
2019-03-19T11:23:45.207Z,50.73
2019-03-19T11:26:17.430Z,50.70
2019-03-19T11:28:49.865Z,49.73
2019-03-19T11:31:22.128Z,50.08
2019-03-19T11:33:54.400Z,51.63
2019-03-19T11:36:26.732Z,51.25
2019-03-19T11:38:58.930Z,51.18
2019-03-19T11:41:31.121Z,50.47
2019-03-19T11:44:03.576Z,49.98
2019-03-19T11:46:35.991Z,49.75
2019-03-19T11:49:08.324Z,49.65
2019-03-19T11:51:40.769Z,48.90
2019-03-19T11:54:13.058Z,47.95
2019-03-19T11:56:45.170Z,47.93
2019-03-19T11:59:20.393Z,48.70
2019-03-19T12:01:53.932Z,47.83
2019-03-19T12:04:26.203Z,49.25
2019-03-19T12:06:58.272Z,47.27
2019-03-19T12:09:30.448Z,48.23
2019-03-19T12:12:02.487Z,47.53
2019-03-19T12:14:44.442Z,49.18
2019-03-19T12:17:16.976Z,48.33
2019-03-19T12:19:49.226Z,49.15
2019-03-19T12:22:21.405Z,50.20
2019-03-19T12:24:53.715Z,49.70
2019-03-19T12:27:26.137Z,50.38
2019-03-19T12:29:59.486Z,49.90
2019-03-19T12:32:31.705Z,49.65
2019-03-19T12:35:03.931Z,51.35
2019-03-19T12:37:36.201Z,49.77
2019-03-19T12:40:11.083Z,51.28
2019-03-19T12:42:43.363Z,49.13
2019-03-19T12:45:17.485Z,51.68
2019-03-19T12:47:49.743Z,49.80
2019-03-19T12:50:24.592Z,50.45
2019-03-19T12:52:56.767Z,51.40
2019-03-19T12:55:29.177Z,51.73
2019-03-19T12:58:01.566Z,51.55
2019-03-19T13:00:35.260Z,51.85
2019-03-19T13:03:09.411Z,53.68
2019-03-19T13:05:41.596Z,52.50
2019-03-19T13:08:13.814Z,52.08
2019-03-19T13:10:46.192Z,52.33
2019-03-19T13:13:18.425Z,50.67
2019-03-19T13:15:50.729Z,49.90
2019-03-19T13:18:22.969Z,50.00
2019-03-19T13:20:55.317Z,49.90
2019-03-19T13:23:27.549Z,51.48
2019-03-19T13:25:59.677Z,51.08
2019-03-19T13:28:32.946Z,62.27
2019-03-19T13:31:05.407Z,66.60
2019-03-19T13:33:37.595Z,68.42
2019-03-19T13:36:10.056Z,62.33
2019-03-19T13:38:42.397Z,61.43
2019-03-19T13:41:14.583Z,60.63
2019-03-19T13:43:46.839Z,70.52
2019-03-19T13:46:18.971Z,71.83
2019-03-19T13:48:51.313Z,61.77
2019-03-19T13:51:23.549Z,66.17
2019-03-19T13:53:55.706Z,63.53
2019-03-19T13:56:27.826Z,55.50
2019-03-19T13:58:59.871Z,55.95
2019-03-19T14:01:32.302Z,54.30
2019-03-19T14:04:04.788Z,55.73
2019-03-19T14:06:38.727Z,54.38
2019-03-19T14:09:11.096Z,54.35
2019-03-19T14:11:43.217Z,55.08
2019-03-19T14:14:15.375Z,53.80
2019-03-19T14:16:47.667Z,53.95
2019-03-19T14:19:19.721Z,55.03
2019-03-19T14:21:52.391Z,52.53
2019-03-19T14:24:24.537Z,52.63
2019-03-19T14:26:56.880Z,50.17
2019-03-19T14:29:29.076Z,49.05
2019-03-19T14:32:03.885Z,46.67
2019-03-19T14:34:35.238Z,46.18
2019-03-19T14:37:07.807Z,44.80
2019-03-19T14:39:40.338Z,44.05
2019-03-19T14:42:12.531Z,46.10
2019-03-19T14:44:45.039Z,44.93
2019-03-19T14:47:17.662Z,45.00
2019-03-19T14:49:50.014Z,44.42
2019-03-19T14:52:22.635Z,44.60
2019-03-19T14:54:54.910Z,46.15
2019-03-19T14:57:27.307Z,58.15
2019-03-19T14:59:59.530Z,40.17
2019-03-19T15:02:32.976Z,46.48
2019-03-19T15:05:05.718Z,50.20
2019-03-19T15:07:39.171Z,43.70
2019-03-19T15:10:13.545Z,39.73
2019-03-19T15:12:45.919Z,29.10
2019-03-19T15:15:20.758Z,32.28
2019-03-19T15:17:53.552Z,31.02
2019-03-19T15:20:26.997Z,28.47
2019-03-19T15:22:59.918Z,27.95
2019-03-19T15:25:32.324Z,28.25
2019-03-19T15:28:04.554Z,72.15
2019-03-19T15:30:36.858Z,63.05
2019-03-19T15:33:09.504Z,50.30
2019-03-19T15:35:41.842Z,44.80
2019-03-19T15:38:14.075Z,58.48
2019-03-19T15:40:46.322Z,73.40
2019-03-19T15:43:18.624Z,47.55
2019-03-19T15:45:50.719Z,45.00
2019-03-19T15:48:22.861Z,42.10
2019-03-19T15:50:55.500Z,43.30
2019-03-19T15:53:28.277Z,49.20
2019-03-19T15:56:00.691Z,44.77
2019-03-19T15:58:33.023Z,41.43
2019-03-19T16:01:05.362Z,45.05
2019-03-19T16:03:37.553Z,42.08
2019-03-19T16:06:09.726Z,39.05
2019-03-19T16:08:44.019Z,37.03
2019-03-19T16:11:16.377Z,38.88
2019-03-19T16:13:48.782Z,37.95
2019-03-19T16:16:21.153Z,39.27
2019-03-19T16:18:53.498Z,37.55
2019-03-19T16:21:25.741Z,38.10
2019-03-19T16:23:58.345Z,37.38
2019-03-19T16:26:31.538Z,37.83
2019-03-19T16:29:04.084Z,37.45
2019-03-19T16:31:36.426Z,38.38
2019-03-19T16:34:08.751Z,38.28
2019-03-19T16:36:41.072Z,37.67
2019-03-19T16:39:13.310Z,37.78
2019-03-19T16:41:46.407Z,37.73
2019-03-19T16:44:18.780Z,37.53
2019-03-19T16:46:51.121Z,37.95
2019-03-19T16:49:23.482Z,37.90
2019-03-19T16:51:55.665Z,37.75
2019-03-19T16:54:27.996Z,38.10
2019-03-19T16:57:00.236Z,38.42
2019-03-19T16:59:32.702Z,38.30
2019-03-19T17:02:05.033Z,38.17
2019-03-19T17:04:37.427Z,39.75
2019-03-19T17:07:10.742Z,38.42
2019-03-19T17:09:43.930Z,39.58
2019-03-19T17:12:16.174Z,38.80
2019-03-19T17:14:48.382Z,38.50
2019-03-19T17:17:20.814Z,39.45
2019-03-19T17:19:53.212Z,39.10
2019-03-19T17:22:25.474Z,40.33
2019-03-19T17:24:58.190Z,40.90
2019-03-19T17:27:30.347Z,40.17
2019-03-19T17:30:02.592Z,40.43
2019-03-19T17:32:35.011Z,39.78
2019-03-19T17:35:07.383Z,39.20
2019-03-19T17:37:39.864Z,39.48
2019-03-19T17:40:13.837Z,40.50
2019-03-19T17:42:46.192Z,40.30
2019-03-19T17:45:18.547Z,40.85
2019-03-19T17:47:50.769Z,41.88
2019-03-19T17:50:25.467Z,40.37
2019-03-19T17:52:58.263Z,41.60
2019-03-19T17:55:30.767Z,42.00
2019-03-19T17:58:02.905Z,44.88
2019-03-19T18:00:36.315Z,42.00
2019-03-19T18:03:08.429Z,42.70
2019-03-19T18:05:40.570Z,40.95
2019-03-19T18:08:12.897Z,41.90
2019-03-19T18:10:46.245Z,42.80
2019-03-19T18:13:18.316Z,43.65
2019-03-19T18:15:50.413Z,42.62
2019-03-19T18:18:23.869Z,45.40
2019-03-19T18:20:56.182Z,46.35
2019-03-19T18:23:29.491Z,45.77
2019-03-19T18:26:02.251Z,50.07
2019-03-19T18:28:35.764Z,48.92
2019-03-19T18:31:08.639Z,50.30
2019-03-19T18:33:40.969Z,55.30
2019-03-19T18:36:13.206Z,49.13
2019-03-19T18:38:45.528Z,50.40
2019-03-19T18:41:17.880Z,50.63
2019-03-19T18:43:50.112Z,50.95
2019-03-19T18:46:22.384Z,50.05
2019-03-19T18:48:54.737Z,49.67
2019-03-19T18:51:27.144Z,50.38
2019-03-19T18:53:59.362Z,50.60
2019-03-19T18:56:38.353Z,51.08
2019-03-19T18:59:10.675Z,50.93
2019-03-19T19:01:43.044Z,50.00
2019-03-19T19:04:15.303Z,51.08
2019-03-19T19:06:47.580Z,50.45
2019-03-19T19:09:19.730Z,51.37
2019-03-19T19:11:52.521Z,52.45
2019-03-19T19:14:24.988Z,53.98
2019-03-19T19:16:57.346Z,51.77
2019-03-19T19:19:29.461Z,53.63
2019-03-19T19:22:01.615Z,53.80
2019-03-19T19:24:33.935Z,54.53
2019-03-19T19:27:07.118Z,51.67
2019-03-19T19:29:39.341Z,54.35
2019-03-19T19:32:11.615Z,53.65
2019-03-19T19:34:43.747Z,55.38
2019-03-19T19:37:16.241Z,55.93
2019-03-19T19:39:48.658Z,55.80
2019-03-19T19:42:20.830Z,56.93
2019-03-19T19:44:53.030Z,57.08
2019-03-19T19:47:25.352Z,57.15
2019-03-19T19:49:57.697Z,54.55
2019-03-19T19:52:30.367Z,54.85
2019-03-19T19:55:02.699Z,54.35
2019-03-19T19:57:34.875Z,52.93
2019-03-19T20:00:09.524Z,52.63
2019-03-19T20:02:41.717Z,52.65
2019-03-19T20:05:14.266Z,53.50
2019-03-19T20:07:46.412Z,52.65
2019-03-19T20:10:20.574Z,50.65
2019-03-19T20:12:53.218Z,52.98
2019-03-19T20:15:25.513Z,60.52
2019-03-19T20:17:57.906Z,77.85
2019-03-19T20:20:32.057Z,74.07
2019-03-19T20:23:05.369Z,75.57
2019-03-19T20:25:37.612Z,75.00
2019-03-19T20:28:10.009Z,58.90
2019-03-19T20:30:42.209Z,57.98
2019-03-19T20:33:24.515Z,55.90
2019-03-19T20:35:48.047Z,56.50
2019-03-19T20:38:20.156Z,56.00
2019-03-19T20:40:52.212Z,55.58
2019-03-19T20:43:24.367Z,60.90
2019-03-19T20:45:56.603Z,57.75
2019-03-19T20:48:28.662Z,55.25
2019-03-19T20:51:01.989Z,53.67
2019-03-19T20:53:34.404Z,53.73
2019-03-19T20:56:06.611Z,53.42
2019-03-19T20:58:43.418Z,54.20
2019-03-19T21:01:12.958Z,54.25
2019-03-19T21:03:45.221Z,51.30
2019-03-19T21:06:18.396Z,53.23
2019-03-19T21:08:50.434Z,52.23
2019-03-19T21:11:22.694Z,69.58
2019-03-19T21:13:55.174Z,67.78
2019-03-19T21:16:29.307Z,71.17
2019-03-19T21:19:00.936Z,80.55
2019-03-19T21:21:33.285Z,59.08
2019-03-19T21:24:05.462Z,58.85
2019-03-19T21:26:37.804Z,59.83
2019-03-19T21:29:10.169Z,66.93
2019-03-19T21:31:42.413Z,81.57
2019-03-19T21:34:14.673Z,77.70
2019-03-19T21:36:47.006Z,64.55
2019-03-19T21:39:19.370Z,72.10
2019-03-19T21:41:51.606Z,67.07
2019-03-19T21:44:23.901Z,69.50
2019-03-19T21:46:55.951Z,66.40
2019-03-19T21:49:28.151Z,85.28
2019-03-19T21:52:00.407Z,84.20
2019-03-19T21:54:32.754Z,65.87
2019-03-19T21:57:04.919Z,67.05
2019-03-19T21:59:37.266Z,161.52
2019-03-19T22:02:09.585Z,71.35
2019-03-19T22:04:41.925Z,67.00
2019-03-19T22:07:14.081Z,66.67
2019-03-19T22:09:46.160Z,65.15
2019-03-19T22:12:18.513Z,65.42
2019-03-19T22:14:51.165Z,66.50
2019-03-19T22:17:23.436Z,87.53
2019-03-19T22:19:55.800Z,64.33
2019-03-19T22:22:27.876Z,66.28
2019-03-19T22:25:00.053Z,65.10
2019-03-19T22:27:32.287Z,63.73
2019-03-19T22:30:04.841Z,63.08
2019-03-19T22:32:37.278Z,71.67
2019-03-19T22:35:09.568Z,71.60
2019-03-19T22:37:41.989Z,69.27
2019-03-19T22:40:17.163Z,71.23
2019-03-19T22:42:49.398Z,88.62
2019-03-19T22:45:21.712Z,78.87
2019-03-19T22:47:53.837Z,82.22
2019-03-19T22:50:26.020Z,88.70
2019-03-19T22:52:58.169Z,84.52
2019-03-19T22:55:30.369Z,85.97
2019-03-19T22:58:02.526Z,82.95
2019-03-19T23:00:36.124Z,84.80
2019-03-19T23:03:10.488Z,79.92
2019-03-19T23:05:42.552Z,84.70
2019-03-19T23:08:14.910Z,80.95
2019-03-19T23:10:47.174Z,79.07
2019-03-19T23:13:19.491Z,83.45
2019-03-19T23:15:52.121Z,84.77
2019-03-19T23:18:24.348Z,88.62
2019-03-19T23:20:56.541Z,82.45
2019-03-19T23:23:30.130Z,93.60
2019-03-19T23:26:02.409Z,83.00
2019-03-19T23:28:34.694Z,79.85
2019-03-19T23:31:07.001Z,78.70
2019-03-19T23:33:39.067Z,94.87
2019-03-19T23:36:11.263Z,76.55
2019-03-19T23:38:43.627Z,79.40
2019-03-19T23:41:15.928Z,83.00
2019-03-19T23:43:48.112Z,84.15
2019-03-19T23:46:20.283Z,83.37
2019-03-19T23:48:52.658Z,84.17
2019-03-19T23:51:24.835Z,90.97
2019-03-19T23:53:57.257Z,107.97
2019-03-19T23:56:29.597Z,76.77
2019-03-19T23:59:01.682Z,77.22
